This is the latest recevied weather packets stored in our database for station/object I1SXT-13. If no packets are shown the sender has not sent any weather packets the latest 10 day(s).
| Time | Temp. | Humidity | Pressure | Rain* | Wind** | Luminosity | Snow |
|---|---|---|---|---|---|---|---|
| 1777553969 | 25° C | 42% | 1021.7 hPa | 0 mm | - | - | - |
| 1777553665 | 26.11° C | 42% | 1021.7 hPa | 0 mm | - | - | - |
| 1777553367 | 25.56° C | 36% | 1021.8 hPa | 0 mm | - | - | - |
| 1777552766 | 25.56° C | 37% | 1022.2 hPa | 0 mm | - | - | - |
| 1777552469 | 25° C | 40% | 1021.2 hPa | 0 mm | - | - | - |
| 1777552165 | 23.33° C | 45% | 1022.9 hPa | 0 mm | - | - | - |
| 1777551868 | 22.78° C | 46% | 1022.1 hPa | 0 mm | - | - | - |
| 1777551564 | 23.33° C | 46% | 1022.8 hPa | 0 mm | - | - | - |
| 1777551267 | 22.78° C | 47% | 1022.4 hPa | 0 mm | - | - | - |
| 1777550970 | 22.78° C | 49% | 1022.7 hPa | 0 mm | - | - | - |
| 1777550666 | 23.33° C | 47% | 1022.2 hPa | 0 mm | - | - | - |
| 1777550369 | 24.44° C | 43% | 1021.2 hPa | 0 mm | - | - | - |
| 1777549768 | 24.44° C | 41% | 1022.6 hPa | 0 mm | - | - | - |
| 1777549464 | 23.89° C | 41% | 1022.1 hPa | 0 mm | - | - | - |
| 1777549167 | 22.78° C | 45% | 1021.9 hPa | 0 mm | - | - | - |
| 1777548870 | 22.78° C | 50% | 1022.2 hPa | 0 mm | - | - | - |
| 1777548566 | 22.78° C | 47% | 1022.5 hPa | 0 mm | - | - | - |
| 1777548269 | 23.89° C | 39% | 1021.5 hPa | 0 mm | - | - | - |
| 1777547965 | 23.33° C | 41% | 1022.1 hPa | 0 mm | - | - | - |
| 1777547667 | 23.33° C | 39% | 1021.9 hPa | 0 mm | - | - | - |
| 1777547066 | 22.78° C | 43% | 1021.7 hPa | 0 mm | - | - | - |
| 1777546465 | 22.78° C | 42% | 1022.1 hPa | 0 mm | - | - | - |
| 1777546168 | 22.78° C | 40% | 1021.4 hPa | 0 mm | - | - | - |
| 1777545864 | 22.78° C | 42% | 1021.3 hPa | 0 mm | - | - | - |
| 1777545567 | 22.78° C | 43% | 1022.1 hPa | 0 mm | - | - | - |
* Rain since midnight (hover to see other rain measurements)
** Current wind speed in m/s (hover to see current wind gust speed)